Time;durP1;ratioP1;P1;durP2;ratioP2;P2;SDS_P1;SDS_P2;PMS_P1;PMS_P2;Temp;Humidity;BMP_temperature;BMP_pressure;BME280_temperature;BME280_humidity;BME280_pressure;Samples;Min_cycle;Max_cycle;Signal;HPM_P1;HPM_P2
2023/10/08 00:10:42;;;;;;;10.90;4.10;;;;;;;22.09;88.05;99268.25;31479870;28;20053;-80
2023/10/08 00:25:47;;;;;;;9.10;4.10;;;;;;;21.83;87.14;99243.09;31454446;28;20064;-82
2023/10/08 00:40:49;;;;;;;14.23;5.60;;;;;;;21.59;84.23;99221.72;31456944;28;20048;-80
2023/10/08 00:55:54;;;;;;;10.23;6.22;;;;;;;21.73;81.00;99220.63;31452986;28;20106;-81
2023/10/08 01:11:00;;;;;;;9.00;4.55;;;;;;;21.55;78.89;99207.44;31464628;28;20462;-81
2023/10/08 01:26:13;;;;;;;15.65;5.38;;;;;;;21.27;78.51;99202.88;31443168;28;20040;-82
2023/10/08 01:41:28;;;;;;;12.30;4.25;;;;;;;21.26;76.51;99195.88;31464944;28;20055;-80
2023/10/08 01:56:33;;;;;;;13.57;4.22;;;;;;;21.32;74.40;99182.78;31467854;28;20103;-81
2023/10/08 02:11:53;;;;;;;11.77;4.85;;;;;;;21.41;72.50;99182.47;31476741;28;20053;-80
2023/10/08 02:26:57;;;;;;;10.23;3.70;;;;;;;21.16;71.67;99164.31;31461471;28;20063;-80
2023/10/08 02:41:59;;;;;;;10.63;4.33;;;;;;;21.28;69.06;99165.75;31479236;28;20054;-80
2023/10/08 02:57:03;;;;;;;12.13;4.10;;;;;;;21.43;68.19;99166.13;31440758;28;20048;-80
2023/10/08 03:12:09;;;;;;;9.90;4.05;;;;;;;21.37;68.17;99151.63;31484894;28;20143;-81
2023/10/08 03:27:20;;;;;;;11.43;4.72;;;;;;;20.84;74.22;99157.75;31451493;28;20060;-82
2023/10/08 03:42:24;;;;;;;12.07;5.88;;;;;;;20.20;93.37;99127.50;31485166;28;20055;-82
2023/10/08 03:57:41;;;;;;;16.90;5.70;;;;;;;19.57;100.00;99088.91;31478151;28;20048;-82
2023/10/08 04:12:50;;;;;;;10.17;5.10;;;;;;;18.99;100.00;99047.44;31467816;28;20052;-78
2023/10/08 04:27:54;;;;;;;12.10;4.63;;;;;;;18.78;100.00;98982.97;31477825;28;20416;-80
2023/10/08 04:43:01;;;;;;;13.17;7.57;;;;;;;18.47;100.00;98957.19;31479680;28;20082;-79
2023/10/08 04:58:19;;;;;;;17.57;8.60;;;;;;;18.48;100.00;98942.22;31465544;28;20051;-80
2023/10/08 05:36:27;;;;;;;9.47;6.00;;;;;;;18.22;100.00;98887.50;31188665;28;20422;-74
2023/10/08 06:22:12;;;;;;;12.87;5.30;;;;;;;18.32;100.00;98855.06;31194526;28;20522;-82
2023/10/08 06:37:15;;;;;;;15.43;8.77;;;;;;;18.45;100.00;98847.03;31106396;28;20190;-83
2023/10/08 06:52:19;;;;;;;13.00;7.23;;;;;;;18.65;100.00;98860.53;31093946;28;20434;-80
2023/10/08 07:07:21;;;;;;;12.73;7.43;;;;;;;18.64;100.00;98872.78;31085631;28;20042;-77
2023/10/08 07:22:28;;;;;;;9.70;5.93;;;;;;;18.73;100.00;98869.75;31122662;28;20055;-79
2023/10/08 07:37:32;;;;;;;9.57;6.53;;;;;;;18.54;100.00;98854.28;31056782;28;20056;-78
2023/10/08 07:52:34;;;;;;;9.97;6.47;;;;;;;18.51;100.00;98856.03;31110588;28;20041;-80
2023/10/08 08:07:38;;;;;;;9.40;5.87;;;;;;;18.52;100.00;98874.03;31081208;28;20532;-79
2023/10/08 08:22:40;;;;;;;7.23;4.70;;;;;;;18.57;100.00;98903.50;31103388;28;20100;-80
2023/10/08 08:37:46;;;;;;;5.77;4.20;;;;;;;18.51;100.00;98943.97;31131094;28;20050;-78
2023/10/08 08:52:49;;;;;;;5.87;3.67;;;;;;;18.31;100.00;98972.44;31089666;28;20057;-75
2023/10/08 09:08:07;;;;;;;2.73;1.30;;;;;;;17.48;100.00;99090.91;31076118;28;20077;-76
2023/10/08 09:23:21;;;;;;;4.17;1.30;;;;;;;16.21;100.00;99151.50;31056696;28;20069;-75
2023/10/08 09:38:24;;;;;;;3.20;1.37;;;;;;;15.56;100.00;99156.34;31082895;28;20069;-76
2023/10/08 09:53:39;;;;;;;4.03;1.73;;;;;;;15.64;100.00;99127.34;31091064;28;20474;-74
2023/10/08 10:08:42;;;;;;;17.23;9.93;;;;;;;15.33;100.00;99125.91;31092431;28;20050;-76
2023/10/08 10:23:46;;;;;;;4.47;2.20;;;;;;;15.50;100.00;99155.47;31111063;28;20415;-77
2023/10/08 10:38:49;;;;;;;5.20;2.07;;;;;;;15.32;100.00;99151.72;31095389;28;20057;-75
2023/10/08 10:54:08;;;;;;;4.07;1.87;;;;;;;15.33;100.00;99117.69;31122063;28;20054;-76
2023/10/08 11:09:14;;;;;;;4.20;1.90;;;;;;;15.33;100.00;99130.59;31086012;28;20475;-77
2023/10/08 11:24:34;;;;;;;5.40;2.70;;;;;;;15.11;100.00;99141.94;31116169;28;20483;-78
2023/10/08 11:39:45;;;;;;;8.90;4.60;;;;;;;14.00;100.00;99234.09;31069077;28;20057;-80
2023/10/08 11:54:48;;;;;;;24.40;11.50;;;;;;;13.52;100.00;99227.75;31063576;28;20537;-79
2023/10/08 12:09:51;;;;;;;3.67;1.53;;;;;;;13.42;100.00;99244.59;31092901;28;20483;-80
2023/10/08 12:24:53;;;;;;;2.93;1.70;;;;;;;13.23;100.00;99230.25;31090309;28;20104;-78
2023/10/08 12:40:11;;;;;;;6.37;3.17;;;;;;;13.48;100.00;99204.59;31094281;28;20112;-77
2023/10/08 12:55:13;;;;;;;5.83;3.90;;;;;;;13.43;100.00;99183.41;31066564;28;20061;-79
2023/10/08 13:10:15;;;;;;;8.57;4.10;;;;;;;13.52;100.00;99188.81;31082389;28;20511;-74
2023/10/08 13:25:17;;;;;;;3.47;2.33;;;;;;;13.64;100.00;99190.59;31092380;28;20077;-75
2023/10/08 13:40:20;;;;;;;8.50;5.07;;;;;;;13.59;100.00;99194.72;31099264;28;20053;-74
2023/10/08 13:55:25;;;;;;;7.03;3.83;;;;;;;13.81;100.00;99197.19;31112011;28;20058;-73
2023/10/08 14:10:29;;;;;;;16.83;9.10;;;;;;;13.87;100.00;99230.81;31097639;28;20053;-76
2023/10/08 14:25:33;;;;;;;6.20;3.40;;;;;;;13.87;100.00;99230.81;31111387;28;20096;-74
2023/10/08 14:55:58;;;;;;;11.87;6.57;;;;;;;13.94;100.00;99282.31;31066242;28;20078;-74
2023/10/08 15:11:06;;;;;;;8.17;4.83;;;;;;;14.04;100.00;99282.28;31099019;28;20050;-74
2023/10/08 15:26:09;;;;;;;7.87;4.80;;;;;;;14.05;100.00;99325.50;31058472;28;20069;-74
2023/10/08 15:41:13;;;;;;;6.67;3.10;;;;;;;14.12;100.00;99343.50;31085460;28;20081;-72
2023/10/08 15:56:15;;;;;;;4.90;3.33;;;;;;;14.15;100.00;99376.09;31070698;28;20626;-78
2023/10/08 16:11:19;;;;;;;6.33;2.43;;;;;;;14.13;100.00;99377.78;31051412;28;20054;-76
2023/10/08 16:26:22;;;;;;;6.00;3.23;;;;;;;14.15;100.00;99400.66;31073267;28;20124;-78
2023/10/08 16:41:27;;;;;;;6.87;3.27;;;;;;;14.00;100.00;99403.25;31118594;28;20050;-84
2023/10/08 16:56:30;;;;;;;11.33;7.23;;;;;;;13.95;100.00;99431.16;31103887;28;20054;-75
2023/10/08 17:11:35;;;;;;;4.33;2.67;;;;;;;13.95;100.00;99458.44;31073035;28;20509;-77
2023/10/08 17:26:40;;;;;;;4.63;3.17;;;;;;;13.88;100.00;99447.88;31086321;28;20089;-77
2023/10/08 17:41:45;;;;;;;;;;;;;;;13.76;100.00;99481.50;31062095;28;20050;-81
2023/10/08 17:56:47;;;;;;;5.93;4.67;;;;;;;13.58;100.00;99484.22;31068547;28;20449;-75
2023/10/08 18:11:52;;;;;;;4.47;2.60;;;;;;;13.39;100.00;99515.41;31084422;28;20511;-74
2023/10/08 18:26:54;;;;;;;6.53;3.27;;;;;;;13.10;100.00;99524.69;31069258;28;20590;-73
2023/10/08 18:41:56;;;;;;;7.17;3.23;;;;;;;12.92;100.00;99540.94;31089052;28;20057;-73
2023/10/08 18:57:00;;;;;;;5.70;3.13;;;;;;;12.85;100.00;99563.75;31091252;28;20050;-75
2023/10/08 19:12:06;;;;;;;6.73;3.10;;;;;;;12.71;100.00;99572.47;31078417;28;20066;-76
2023/10/08 19:27:09;;;;;;;6.03;3.08;;;;;;;12.62;100.00;99597.69;31066860;28;20054;-74
2023/10/08 19:42:11;;;;;;;3.73;2.73;;;;;;;12.54;100.00;99611.97;31084527;28;20089;-74
2023/10/08 19:57:14;;;;;;;4.90;2.83;;;;;;;12.31;100.00;99607.72;31085819;28;20531;-73
2023/10/08 20:12:17;;;;;;;8.83;3.30;;;;;;;12.22;100.00;99627.47;31090351;28;20085;-73
2023/10/08 20:27:20;;;;;;;10.87;5.27;;;;;;;12.17;100.00;99635.44;31074532;28;20053;-75
2023/10/08 20:42:22;;;;;;;7.20;3.13;;;;;;;11.98;100.00;99622.88;31095285;28;20144;-74
2023/10/08 20:57:24;;;;;;;4.43;3.10;;;;;;;11.65;100.00;99644.84;31082789;28;20419;-74
2023/10/08 21:12:28;;;;;;;9.90;3.83;;;;;;;11.27;100.00;99636.69;31078599;28;20054;-73
2023/10/08 21:27:31;;;;;;;9.40;3.90;;;;;;;11.14;100.00;99652.97;31064239;28;20069;-73
2023/10/08 21:42:50;;;;;;;5.27;3.37;;;;;;;11.18;100.00;99661.03;31076202;28;20184;-73
2023/10/08 21:57:52;;;;;;;5.47;3.17;;;;;;;11.41;100.00;99685.19;31091953;28;20061;-73
2023/10/08 22:12:58;;;;;;;6.13;3.07;;;;;;;11.32;100.00;99700.63;31091602;28;20101;-75
2023/10/08 22:28:02;;;;;;;;;;;;;;;11.20;100.00;99724.59;31099930;28;20132;-79
2023/10/08 22:43:05;;;;;;;4.00;2.90;;;;;;;11.26;100.00;99733.00;31111617;28;20343;-78
2023/10/08 22:58:08;;;;;;;7.67;3.60;;;;;;;10.98;100.00;99723.66;31116306;28;20077;-80
2023/10/08 23:13:11;;;;;;;4.73;3.10;;;;;;;10.91;100.00;99730.06;31104983;28;20050;-80
2023/10/08 23:28:13;;;;;;;7.63;3.67;;;;;;;10.82;100.00;99731.88;31103696;28;20051;-79
2023/10/08 23:43:20;;;;;;;8.37;3.43;;;;;;;10.61;100.00;99748.72;31053764;28;20057;-80
2023/10/08 23:58:24;;;;;;;6.93;3.70;;;;;;;10.64;100.00;99737.00;31088579;28;20054;-73
